sensor_id;sensor_type;location;lat;lon;timestamp;P1;durP1;ratioP1;P2;durP2;ratioP2
50932;SDS011;36921;49.006;9.292;2023-04-16T00:00:32;15.55;;;8.70;;
50932;SDS011;36921;49.006;9.292;2023-04-16T00:02:57;13.70;;;8.35;;
50932;SDS011;36921;49.006;9.292;2023-04-16T00:05:22;13.13;;;8.50;;
50932;SDS011;36921;49.006;9.292;2023-04-16T00:07:48;15.45;;;8.57;;
50932;SDS011;36921;49.006;9.292;2023-04-16T00:10:15;13.48;;;8.00;;
50932;SDS011;36921;49.006;9.292;2023-04-16T00:12:40;15.23;;;9.10;;
50932;SDS011;36921;49.006;9.292;2023-04-16T00:15:06;14.75;;;8.88;;
50932;SDS011;36921;49.006;9.292;2023-04-16T00:17:32;14.25;;;8.60;;
50932;SDS011;36921;49.006;9.292;2023-04-16T00:19:57;17.02;;;9.35;;
50932;SDS011;36921;49.006;9.292;2023-04-16T00:22:22;16.90;;;9.90;;
50932;SDS011;36921;49.006;9.292;2023-04-16T00:24:47;15.05;;;8.98;;
50932;SDS011;36921;49.006;9.292;2023-04-16T00:27:13;14.18;;;8.23;;
50932;SDS011;36921;49.006;9.292;2023-04-16T00:29:38;14.52;;;8.60;;
50932;SDS011;36921;49.006;9.292;2023-04-16T00:32:03;10.93;;;7.35;;
50932;SDS011;36921;49.006;9.292;2023-04-16T00:34:29;14.32;;;7.80;;
50932;SDS011;36921;49.006;9.292;2023-04-16T00:36:55;15.25;;;8.43;;
50932;SDS011;36921;49.006;9.292;2023-04-16T00:39:20;13.63;;;8.05;;
50932;SDS011;36921;49.006;9.292;2023-04-16T00:41:45;14.15;;;8.35;;
50932;SDS011;36921;49.006;9.292;2023-04-16T00:44:11;11.85;;;7.55;;
50932;SDS011;36921;49.006;9.292;2023-04-16T00:46:36;12.45;;;7.85;;
50932;SDS011;36921;49.006;9.292;2023-04-16T00:49:02;13.18;;;7.88;;
50932;SDS011;36921;49.006;9.292;2023-04-16T00:51:27;12.25;;;6.90;;
50932;SDS011;36921;49.006;9.292;2023-04-16T00:53:53;12.68;;;7.57;;
50932;SDS011;36921;49.006;9.292;2023-04-16T00:56:19;12.52;;;7.38;;
50932;SDS011;36921;49.006;9.292;2023-04-16T00:58:45;13.65;;;7.28;;
50932;SDS011;36921;49.006;9.292;2023-04-16T01:01:10;11.55;;;7.38;;
50932;SDS011;36921;49.006;9.292;2023-04-16T01:03:39;11.50;;;7.20;;
50932;SDS011;36921;49.006;9.292;2023-04-16T01:06:08;12.77;;;7.53;;
50932;SDS011;36921;49.006;9.292;2023-04-16T01:08:33;12.10;;;7.28;;
50932;SDS011;36921;49.006;9.292;2023-04-16T01:10:59;10.48;;;6.72;;
50932;SDS011;36921;49.006;9.292;2023-04-16T01:13:24;10.70;;;6.50;;
50932;SDS011;36921;49.006;9.292;2023-04-16T01:15:50;10.18;;;6.13;;
50932;SDS011;36921;49.006;9.292;2023-04-16T01:18:16;9.77;;;5.75;;
50932;SDS011;36921;49.006;9.292;2023-04-16T01:20:43;10.60;;;6.60;;
50932;SDS011;36921;49.006;9.292;2023-04-16T01:23:09;10.70;;;6.72;;
50932;SDS011;36921;49.006;9.292;2023-04-16T01:25:35;9.25;;;5.80;;
50932;SDS011;36921;49.006;9.292;2023-04-16T01:28:01;9.95;;;6.65;;
50932;SDS011;36921;49.006;9.292;2023-04-16T01:30:26;12.50;;;5.93;;
50932;SDS011;36921;49.006;9.292;2023-04-16T01:32:52;10.20;;;5.60;;
50932;SDS011;36921;49.006;9.292;2023-04-16T01:35:17;9.20;;;5.70;;
50932;SDS011;36921;49.006;9.292;2023-04-16T01:37:43;9.63;;;5.72;;
50932;SDS011;36921;49.006;9.292;2023-04-16T01:40:08;7.75;;;5.43;;
50932;SDS011;36921;49.006;9.292;2023-04-16T01:42:34;7.97;;;5.50;;
50932;SDS011;36921;49.006;9.292;2023-04-16T01:45:00;10.05;;;6.38;;
50932;SDS011;36921;49.006;9.292;2023-04-16T01:47:25;9.68;;;5.82;;
50932;SDS011;36921;49.006;9.292;2023-04-16T01:49:50;10.85;;;6.15;;
50932;SDS011;36921;49.006;9.292;2023-04-16T01:52:16;12.93;;;5.75;;
50932;SDS011;36921;49.006;9.292;2023-04-16T01:54:41;9.45;;;5.68;;
50932;SDS011;36921;49.006;9.292;2023-04-16T01:57:06;9.25;;;5.43;;
50932;SDS011;36921;49.006;9.292;2023-04-16T01:59:32;9.68;;;5.30;;
50932;SDS011;36921;49.006;9.292;2023-04-16T02:02:00;9.73;;;6.38;;
50932;SDS011;36921;49.006;9.292;2023-04-16T02:04:35;9.15;;;5.57;;
50932;SDS011;36921;49.006;9.292;2023-04-16T02:07:04;8.18;;;5.63;;
50932;SDS011;36921;49.006;9.292;2023-04-16T02:09:32;9.40;;;6.07;;
50932;SDS011;36921;49.006;9.292;2023-04-16T02:11:58;9.10;;;6.07;;
50932;SDS011;36921;49.006;9.292;2023-04-16T02:14:24;11.45;;;6.55;;
50932;SDS011;36921;49.006;9.292;2023-04-16T02:16:50;9.35;;;5.90;;
50932;SDS011;36921;49.006;9.292;2023-04-16T02:19:15;10.88;;;6.55;;
50932;SDS011;36921;49.006;9.292;2023-04-16T02:21:40;10.85;;;6.68;;
50932;SDS011;36921;49.006;9.292;2023-04-16T02:24:06;9.90;;;6.00;;
50932;SDS011;36921;49.006;9.292;2023-04-16T02:26:32;10.00;;;6.50;;
50932;SDS011;36921;49.006;9.292;2023-04-16T02:28:57;11.30;;;6.60;;
50932;SDS011;36921;49.006;9.292;2023-04-16T02:31:22;10.20;;;6.20;;
50932;SDS011;36921;49.006;9.292;2023-04-16T02:33:48;10.57;;;6.03;;
50932;SDS011;36921;49.006;9.292;2023-04-16T02:36:13;12.93;;;6.35;;
50932;SDS011;36921;49.006;9.292;2023-04-16T02:38:38;10.00;;;5.68;;
50932;SDS011;36921;49.006;9.292;2023-04-16T02:41:03;10.90;;;6.20;;
50932;SDS011;36921;49.006;9.292;2023-04-16T02:43:29;10.90;;;6.55;;
50932;SDS011;36921;49.006;9.292;2023-04-16T02:45:54;11.30;;;6.90;;
50932;SDS011;36921;49.006;9.292;2023-04-16T02:48:19;11.98;;;6.38;;
50932;SDS011;36921;49.006;9.292;2023-04-16T02:50:45;12.00;;;6.80;;
50932;SDS011;36921;49.006;9.292;2023-04-16T02:53:10;11.27;;;7.28;;
50932;SDS011;36921;49.006;9.292;2023-04-16T02:55:35;13.68;;;6.40;;
50932;SDS011;36921;49.006;9.292;2023-04-16T02:58:00;11.77;;;6.78;;
50932;SDS011;36921;49.006;9.292;2023-04-16T03:00:26;10.27;;;5.90;;
50932;SDS011;36921;49.006;9.292;2023-04-16T03:02:51;11.57;;;7.13;;
50932;SDS011;36921;49.006;9.292;2023-04-16T03:05:16;12.13;;;7.25;;
50932;SDS011;36921;49.006;9.292;2023-04-16T03:07:42;13.63;;;6.90;;
50932;SDS011;36921;49.006;9.292;2023-04-16T03:10:07;11.20;;;6.85;;
50932;SDS011;36921;49.006;9.292;2023-04-16T03:12:33;14.15;;;7.53;;
50932;SDS011;36921;49.006;9.292;2023-04-16T03:14:59;13.38;;;7.65;;
50932;SDS011;36921;49.006;9.292;2023-04-16T03:17:25;12.77;;;6.80;;
50932;SDS011;36921;49.006;9.292;2023-04-16T03:19:50;13.43;;;7.70;;
50932;SDS011;36921;49.006;9.292;2023-04-16T03:22:16;12.27;;;7.20;;
50932;SDS011;36921;49.006;9.292;2023-04-16T03:24:41;15.32;;;8.38;;
50932;SDS011;36921;49.006;9.292;2023-04-16T03:27:06;13.50;;;8.52;;
50932;SDS011;36921;49.006;9.292;2023-04-16T03:29:31;14.40;;;7.95;;
50932;SDS011;36921;49.006;9.292;2023-04-16T03:31:57;13.68;;;8.57;;
50932;SDS011;36921;49.006;9.292;2023-04-16T03:34:22;13.35;;;7.93;;
50932;SDS011;36921;49.006;9.292;2023-04-16T03:36:47;15.27;;;8.70;;
50932;SDS011;36921;49.006;9.292;2023-04-16T03:39:13;16.00;;;9.05;;
50932;SDS011;36921;49.006;9.292;2023-04-16T03:41:38;17.50;;;8.57;;
50932;SDS011;36921;49.006;9.292;2023-04-16T03:44:03;14.68;;;8.98;;
50932;SDS011;36921;49.006;9.292;2023-04-16T03:46:29;14.18;;;8.30;;
50932;SDS011;36921;49.006;9.292;2023-04-16T03:48:54;16.98;;;8.90;;
50932;SDS011;36921;49.006;9.292;2023-04-16T03:51:19;16.92;;;8.60;;
50932;SDS011;36921;49.006;9.292;2023-04-16T03:53:45;13.70;;;8.13;;
50932;SDS011;36921;49.006;9.292;2023-04-16T03:56:10;14.90;;;8.07;;
50932;SDS011;36921;49.006;9.292;2023-04-16T03:58:35;16.60;;;9.02;;
50932;SDS011;36921;49.006;9.292;2023-04-16T04:01:00;15.30;;;8.57;;
50932;SDS011;36921;49.006;9.292;2023-04-16T04:03:26;15.85;;;8.60;;
50932;SDS011;36921;49.006;9.292;2023-04-16T04:05:51;16.65;;;9.18;;
50932;SDS011;36921;49.006;9.292;2023-04-16T04:08:16;18.13;;;9.48;;
50932;SDS011;36921;49.006;9.292;2023-04-16T04:10:42;16.00;;;8.80;;
50932;SDS011;36921;49.006;9.292;2023-04-16T04:13:07;16.63;;;9.40;;
50932;SDS011;36921;49.006;9.292;2023-04-16T04:15:32;16.55;;;8.82;;
50932;SDS011;36921;49.006;9.292;2023-04-16T04:17:57;14.80;;;8.52;;
50932;SDS011;36921;49.006;9.292;2023-04-16T04:20:23;21.33;;;9.10;;
50932;SDS011;36921;49.006;9.292;2023-04-16T04:22:48;16.88;;;9.10;;
50932;SDS011;36921;49.006;9.292;2023-04-16T04:25:15;19.88;;;9.00;;
50932;SDS011;36921;49.006;9.292;2023-04-16T04:27:40;17.33;;;9.05;;
50932;SDS011;36921;49.006;9.292;2023-04-16T04:30:06;19.45;;;9.23;;
50932;SDS011;36921;49.006;9.292;2023-04-16T04:32:32;15.35;;;8.25;;
50932;SDS011;36921;49.006;9.292;2023-04-16T04:34:58;16.92;;;9.32;;
50932;SDS011;36921;49.006;9.292;2023-04-16T04:37:25;15.98;;;8.63;;
50932;SDS011;36921;49.006;9.292;2023-04-16T04:39:50;15.52;;;8.50;;
50932;SDS011;36921;49.006;9.292;2023-04-16T04:42:16;13.73;;;8.57;;
50932;SDS011;36921;49.006;9.292;2023-04-16T04:44:42;12.98;;;8.20;;
50932;SDS011;36921;49.006;9.292;2023-04-16T04:47:08;14.63;;;8.10;;
50932;SDS011;36921;49.006;9.292;2023-04-16T04:49:33;14.93;;;8.05;;
50932;SDS011;36921;49.006;9.292;2023-04-16T04:51:58;15.40;;;7.85;;
50932;SDS011;36921;49.006;9.292;2023-04-16T04:54:25;13.73;;;8.18;;
50932;SDS011;36921;49.006;9.292;2023-04-16T04:56:50;13.20;;;7.50;;
50932;SDS011;36921;49.006;9.292;2023-04-16T04:59:16;14.10;;;7.82;;
50932;SDS011;36921;49.006;9.292;2023-04-16T05:01:41;15.00;;;8.18;;
50932;SDS011;36921;49.006;9.292;2023-04-16T05:04:07;13.15;;;8.07;;
50932;SDS011;36921;49.006;9.292;2023-04-16T05:06:32;13.65;;;8.60;;
50932;SDS011;36921;49.006;9.292;2023-04-16T05:08:57;15.25;;;8.70;;
50932;SDS011;36921;49.006;9.292;2023-04-16T05:11:23;13.55;;;8.25;;
50932;SDS011;36921;49.006;9.292;2023-04-16T05:13:48;16.17;;;8.65;;
50932;SDS011;36921;49.006;9.292;2023-04-16T05:16:13;16.88;;;9.30;;
50932;SDS011;36921;49.006;9.292;2023-04-16T05:18:39;16.40;;;8.85;;
50932;SDS011;36921;49.006;9.292;2023-04-16T05:21:04;15.65;;;9.15;;
50932;SDS011;36921;49.006;9.292;2023-04-16T05:23:30;21.77;;;8.75;;
50932;SDS011;36921;49.006;9.292;2023-04-16T05:25:55;16.73;;;9.82;;
50932;SDS011;36921;49.006;9.292;2023-04-16T05:28:20;16.50;;;8.82;;
50932;SDS011;36921;49.006;9.292;2023-04-16T05:30:46;18.88;;;9.90;;
50932;SDS011;36921;49.006;9.292;2023-04-16T05:33:11;20.70;;;10.40;;
50932;SDS011;36921;49.006;9.292;2023-04-16T05:35:36;17.42;;;9.85;;
50932;SDS011;36921;49.006;9.292;2023-04-16T05:38:02;18.88;;;10.95;;
50932;SDS011;36921;49.006;9.292;2023-04-16T05:40:28;18.75;;;10.38;;
50932;SDS011;36921;49.006;9.292;2023-04-16T05:42:53;23.00;;;11.13;;
50932;SDS011;36921;49.006;9.292;2023-04-16T05:45:19;21.30;;;10.25;;
50932;SDS011;36921;49.006;9.292;2023-04-16T05:47:44;21.73;;;11.20;;
50932;SDS011;36921;49.006;9.292;2023-04-16T05:50:11;22.60;;;11.32;;
50932;SDS011;36921;49.006;9.292;2023-04-16T05:52:37;19.65;;;11.23;;
50932;SDS011;36921;49.006;9.292;2023-04-16T05:55:04;21.23;;;11.18;;
50932;SDS011;36921;49.006;9.292;2023-04-16T05:57:29;21.48;;;11.10;;
50932;SDS011;36921;49.006;9.292;2023-04-16T05:59:55;22.13;;;11.73;;
50932;SDS011;36921;49.006;9.292;2023-04-16T06:02:20;20.52;;;11.85;;
50932;SDS011;36921;49.006;9.292;2023-04-16T06:04:45;20.58;;;11.90;;
50932;SDS011;36921;49.006;9.292;2023-04-16T06:07:11;21.10;;;12.10;;
50932;SDS011;36921;49.006;9.292;2023-04-16T06:09:36;18.23;;;11.23;;
50932;SDS011;36921;49.006;9.292;2023-04-16T06:12:01;22.40;;;11.93;;
50932;SDS011;36921;49.006;9.292;2023-04-16T06:14:27;23.00;;;11.63;;
50932;SDS011;36921;49.006;9.292;2023-04-16T06:16:52;20.90;;;11.95;;
50932;SDS011;36921;49.006;9.292;2023-04-16T06:19:17;19.38;;;11.60;;
50932;SDS011;36921;49.006;9.292;2023-04-16T06:21:43;21.15;;;10.77;;
50932;SDS011;36921;49.006;9.292;2023-04-16T06:24:08;19.90;;;10.85;;
50932;SDS011;36921;49.006;9.292;2023-04-16T06:26:33;20.40;;;11.52;;
50932;SDS011;36921;49.006;9.292;2023-04-16T06:28:59;19.45;;;11.40;;
50932;SDS011;36921;49.006;9.292;2023-04-16T06:31:24;20.55;;;11.50;;
50932;SDS011;36921;49.006;9.292;2023-04-16T06:33:50;22.52;;;11.65;;
50932;SDS011;36921;49.006;9.292;2023-04-16T06:36:15;19.83;;;11.63;;
50932;SDS011;36921;49.006;9.292;2023-04-16T06:38:41;17.33;;;10.35;;
50932;SDS011;36921;49.006;9.292;2023-04-16T06:41:06;20.13;;;10.77;;
50932;SDS011;36921;49.006;9.292;2023-04-16T06:43:32;20.42;;;11.20;;
50932;SDS011;36921;49.006;9.292;2023-04-16T06:45:57;19.92;;;11.48;;
50932;SDS011;36921;49.006;9.292;2023-04-16T06:48:23;18.08;;;10.57;;
50932;SDS011;36921;49.006;9.292;2023-04-16T06:50:48;18.15;;;11.00;;
50932;SDS011;36921;49.006;9.292;2023-04-16T06:53:14;18.60;;;10.80;;
50932;SDS011;36921;49.006;9.292;2023-04-16T06:55:39;18.15;;;11.10;;
50932;SDS011;36921;49.006;9.292;2023-04-16T06:58:04;19.15;;;10.52;;
50932;SDS011;36921;49.006;9.292;2023-04-16T07:00:30;21.55;;;11.35;;
50932;SDS011;36921;49.006;9.292;2023-04-16T07:02:55;18.30;;;10.88;;
50932;SDS011;36921;49.006;9.292;2023-04-16T07:05:21;23.90;;;11.32;;
50932;SDS011;36921;49.006;9.292;2023-04-16T07:07:46;21.88;;;10.18;;
50932;SDS011;36921;49.006;9.292;2023-04-16T07:10:11;15.48;;;9.38;;
50932;SDS011;36921;49.006;9.292;2023-04-16T07:12:36;17.90;;;10.98;;
50932;SDS011;36921;49.006;9.292;2023-04-16T07:15:02;16.63;;;10.07;;
50932;SDS011;36921;49.006;9.292;2023-04-16T07:17:28;18.27;;;10.75;;
50932;SDS011;36921;49.006;9.292;2023-04-16T07:19:53;17.95;;;10.88;;
50932;SDS011;36921;49.006;9.292;2023-04-16T07:22:19;19.95;;;10.32;;
50932;SDS011;36921;49.006;9.292;2023-04-16T07:24:44;17.02;;;10.32;;
50932;SDS011;36921;49.006;9.292;2023-04-16T07:27:09;15.98;;;9.50;;
50932;SDS011;36921;49.006;9.292;2023-04-16T07:29:35;21.30;;;11.38;;
50932;SDS011;36921;49.006;9.292;2023-04-16T07:32:00;18.00;;;10.48;;
50932;SDS011;36921;49.006;9.292;2023-04-16T07:34:26;19.80;;;10.30;;
50932;SDS011;36921;49.006;9.292;2023-04-16T07:36:51;17.58;;;10.13;;
50932;SDS011;36921;49.006;9.292;2023-04-16T07:39:16;17.70;;;10.35;;
50932;SDS011;36921;49.006;9.292;2023-04-16T07:41:42;16.67;;;9.65;;
50932;SDS011;36921;49.006;9.292;2023-04-16T07:44:07;17.98;;;9.93;;
50932;SDS011;36921;49.006;9.292;2023-04-16T07:46:33;16.95;;;9.70;;
50932;SDS011;36921;49.006;9.292;2023-04-16T07:48:58;16.15;;;9.18;;
50932;SDS011;36921;49.006;9.292;2023-04-16T07:51:24;18.08;;;10.13;;
50932;SDS011;36921;49.006;9.292;2023-04-16T07:53:50;17.50;;;9.20;;
50932;SDS011;36921;49.006;9.292;2023-04-16T07:56:15;16.00;;;9.82;;
50932;SDS011;36921;49.006;9.292;2023-04-16T07:58:40;14.85;;;9.30;;
50932;SDS011;36921;49.006;9.292;2023-04-16T08:01:05;16.73;;;9.10;;
50932;SDS011;36921;49.006;9.292;2023-04-16T08:03:31;15.85;;;9.27;;
50932;SDS011;36921;49.006;9.292;2023-04-16T08:05:56;15.00;;;8.88;;
50932;SDS011;36921;49.006;9.292;2023-04-16T08:08:22;13.98;;;8.63;;
50932;SDS011;36921;49.006;9.292;2023-04-16T08:10:47;14.95;;;8.40;;
50932;SDS011;36921;49.006;9.292;2023-04-16T08:13:13;14.77;;;8.88;;
50932;SDS011;36921;49.006;9.292;2023-04-16T08:15:38;15.40;;;8.73;;
50932;SDS011;36921;49.006;9.292;2023-04-16T08:18:03;15.85;;;9.00;;
50932;SDS011;36921;49.006;9.292;2023-04-16T08:20:36;14.35;;;8.98;;
50932;SDS011;36921;49.006;9.292;2023-04-16T08:23:02;13.65;;;8.63;;
50932;SDS011;36921;49.006;9.292;2023-04-16T08:25:27;13.55;;;8.38;;
50932;SDS011;36921;49.006;9.292;2023-04-16T08:27:53;17.90;;;8.20;;
50932;SDS011;36921;49.006;9.292;2023-04-16T08:30:18;14.13;;;8.48;;
50932;SDS011;36921;49.006;9.292;2023-04-16T08:32:43;13.80;;;8.18;;
50932;SDS011;36921;49.006;9.292;2023-04-16T08:35:09;14.00;;;8.13;;
50932;SDS011;36921;49.006;9.292;2023-04-16T08:37:34;13.50;;;8.13;;
50932;SDS011;36921;49.006;9.292;2023-04-16T08:39:59;12.57;;;7.75;;
50932;SDS011;36921;49.006;9.292;2023-04-16T08:42:33;12.32;;;7.50;;
50932;SDS011;36921;49.006;9.292;2023-04-16T08:45:10;10.63;;;7.37;;
50932;SDS011;36921;49.006;9.292;2023-04-16T08:47:38;12.70;;;8.20;;
50932;SDS011;36921;49.006;9.292;2023-04-16T08:50:05;13.90;;;8.02;;
50932;SDS011;36921;49.006;9.292;2023-04-16T08:52:36;14.70;;;8.23;;
50932;SDS011;36921;49.006;9.292;2023-04-16T08:55:08;10.85;;;7.28;;
50932;SDS011;36921;49.006;9.292;2023-04-16T08:57:57;12.85;;;8.02;;
50932;SDS011;36921;49.006;9.292;2023-04-16T09:00:22;12.00;;;7.20;;
50932;SDS011;36921;49.006;9.292;2023-04-16T09:02:48;13.13;;;7.85;;
50932;SDS011;36921;49.006;9.292;2023-04-16T09:05:14;13.65;;;8.38;;
50932;SDS011;36921;49.006;9.292;2023-04-16T09:07:41;14.40;;;8.85;;
50932;SDS011;36921;49.006;9.292;2023-04-16T09:10:08;13.25;;;8.02;;
50932;SDS011;36921;49.006;9.292;2023-04-16T09:12:34;14.05;;;7.97;;
50932;SDS011;36921;49.006;9.292;2023-04-16T09:15:00;13.65;;;8.20;;
50932;SDS011;36921;49.006;9.292;2023-04-16T09:17:26;14.40;;;8.18;;
50932;SDS011;36921;49.006;9.292;2023-04-16T09:19:52;14.75;;;7.97;;
50932;SDS011;36921;49.006;9.292;2023-04-16T09:22:18;12.43;;;8.02;;
50932;SDS011;36921;49.006;9.292;2023-04-16T09:24:44;14.30;;;7.97;;
50932;SDS011;36921;49.006;9.292;2023-04-16T09:27:10;12.73;;;7.80;;
50932;SDS011;36921;49.006;9.292;2023-04-16T09:29:37;13.10;;;7.93;;
50932;SDS011;36921;49.006;9.292;2023-04-16T09:32:04;13.20;;;8.23;;
50932;SDS011;36921;49.006;9.292;2023-04-16T09:34:31;16.52;;;9.40;;
50932;SDS011;36921;49.006;9.292;2023-04-16T09:37:12;16.35;;;8.52;;
50932;SDS011;36921;49.006;9.292;2023-04-16T09:39:42;19.42;;;8.80;;
50932;SDS011;36921;49.006;9.292;2023-04-16T09:42:08;14.38;;;8.82;;
50932;SDS011;36921;49.006;9.292;2023-04-16T09:44:34;18.58;;;9.25;;
50932;SDS011;36921;49.006;9.292;2023-04-16T09:49:36;14.98;;;8.07;;
50932;SDS011;36921;49.006;9.292;2023-04-16T09:52:08;18.27;;;8.90;;
50932;SDS011;36921;49.006;9.292;2023-04-16T09:54:38;16.35;;;8.82;;
50932;SDS011;36921;49.006;9.292;2023-04-16T09:57:06;15.00;;;9.40;;
50932;SDS011;36921;49.006;9.292;2023-04-16T09:59:34;16.08;;;8.93;;
50932;SDS011;36921;49.006;9.292;2023-04-16T10:01:59;17.80;;;9.80;;
50932;SDS011;36921;49.006;9.292;2023-04-16T10:04:25;16.80;;;9.18;;
50932;SDS011;36921;49.006;9.292;2023-04-16T10:07:04;16.55;;;9.15;;
50932;SDS011;36921;49.006;9.292;2023-04-16T10:09:30;15.90;;;8.95;;
50932;SDS011;36921;49.006;9.292;2023-04-16T10:11:57;17.83;;;9.13;;
50932;SDS011;36921;49.006;9.292;2023-04-16T10:14:23;17.55;;;9.43;;
50932;SDS011;36921;49.006;9.292;2023-04-16T10:16:48;18.83;;;10.07;;
50932;SDS011;36921;49.006;9.292;2023-04-16T10:19:14;17.63;;;9.75;;
50932;SDS011;36921;49.006;9.292;2023-04-16T10:21:40;18.48;;;9.82;;
50932;SDS011;36921;49.006;9.292;2023-04-16T10:24:05;17.83;;;9.95;;
50932;SDS011;36921;49.006;9.292;2023-04-16T10:26:32;19.30;;;10.05;;
50932;SDS011;36921;49.006;9.292;2023-04-16T10:28:59;18.35;;;10.18;;
50932;SDS011;36921;49.006;9.292;2023-04-16T10:31:24;18.83;;;9.85;;
50932;SDS011;36921;49.006;9.292;2023-04-16T10:33:51;16.17;;;8.85;;
50932;SDS011;36921;49.006;9.292;2023-04-16T10:36:22;16.08;;;9.02;;
50932;SDS011;36921;49.006;9.292;2023-04-16T10:38:49;19.13;;;9.65;;
50932;SDS011;36921;49.006;9.292;2023-04-16T10:41:16;18.98;;;9.80;;
50932;SDS011;36921;49.006;9.292;2023-04-16T10:43:45;19.52;;;9.48;;
50932;SDS011;36921;49.006;9.292;2023-04-16T10:51:57;17.00;;;9.10;;
50932;SDS011;36921;49.006;9.292;2023-04-16T10:54:33;17.45;;;9.15;;
50932;SDS011;36921;49.006;9.292;2023-04-16T10:57:03;15.07;;;8.52;;
50932;SDS011;36921;49.006;9.292;2023-04-16T10:59:34;18.00;;;9.32;;
50932;SDS011;36921;49.006;9.292;2023-04-16T11:02:05;20.05;;;8.85;;
50932;SDS011;36921;49.006;9.292;2023-04-16T11:04:37;15.57;;;8.82;;
50932;SDS011;36921;49.006;9.292;2023-04-16T11:15:09;15.45;;;8.75;;
50932;SDS011;36921;49.006;9.292;2023-04-16T11:17:42;14.77;;;7.63;;
50932;SDS011;36921;49.006;9.292;2023-04-16T11:20:19;13.65;;;7.68;;
50932;SDS011;36921;49.006;9.292;2023-04-16T11:22:49;12.70;;;7.53;;
50932;SDS011;36921;49.006;9.292;2023-04-16T11:25:18;12.63;;;6.97;;
50932;SDS011;36921;49.006;9.292;2023-04-16T11:27:45;14.35;;;7.65;;
50932;SDS011;36921;49.006;9.292;2023-04-16T11:30:11;14.80;;;7.38;;
50932;SDS011;36921;49.006;9.292;2023-04-16T11:32:37;12.70;;;7.00;;
50932;SDS011;36921;49.006;9.292;2023-04-16T11:35:04;12.77;;;6.70;;
50932;SDS011;36921;49.006;9.292;2023-04-16T11:37:37;10.68;;;5.97;;
50932;SDS011;36921;49.006;9.292;2023-04-16T11:40:03;16.02;;;6.38;;
50932;SDS011;36921;49.006;9.292;2023-04-16T11:42:33;10.80;;;5.53;;
50932;SDS011;36921;49.006;9.292;2023-04-16T11:45:04;9.18;;;5.82;;
50932;SDS011;36921;49.006;9.292;2023-04-16T11:47:31;9.35;;;5.40;;
50932;SDS011;36921;49.006;9.292;2023-04-16T11:50:16;13.02;;;5.90;;
50932;SDS011;36921;49.006;9.292;2023-04-16T11:52:42;8.25;;;4.45;;
50932;SDS011;36921;49.006;9.292;2023-04-16T11:55:08;7.85;;;4.47;;
50932;SDS011;36921;49.006;9.292;2023-04-16T11:57:33;8.50;;;4.60;;
50932;SDS011;36921;49.006;9.292;2023-04-16T11:59:58;8.70;;;4.63;;
50932;SDS011;36921;49.006;9.292;2023-04-16T12:02:34;8.77;;;4.88;;
50932;SDS011;36921;49.006;9.292;2023-04-16T12:05:04;7.63;;;4.13;;
50932;SDS011;36921;49.006;9.292;2023-04-16T12:07:31;7.10;;;4.10;;
50932;SDS011;36921;49.006;9.292;2023-04-16T12:10:06;7.70;;;4.40;;
50932;SDS011;36921;49.006;9.292;2023-04-16T12:12:32;8.20;;;4.20;;
50932;SDS011;36921;49.006;9.292;2023-04-16T12:14:58;8.93;;;4.05;;
50932;SDS011;36921;49.006;9.292;2023-04-16T12:17:27;6.53;;;3.67;;
50932;SDS011;36921;49.006;9.292;2023-04-16T12:19:55;7.35;;;3.85;;
50932;SDS011;36921;49.006;9.292;2023-04-16T12:22:29;7.28;;;4.30;;
50932;SDS011;36921;49.006;9.292;2023-04-16T12:24:59;9.57;;;4.25;;
50932;SDS011;36921;49.006;9.292;2023-04-16T12:27:48;8.43;;;4.35;;
50932;SDS011;36921;49.006;9.292;2023-04-16T12:30:17;5.88;;;3.75;;
50932;SDS011;36921;49.006;9.292;2023-04-16T12:32:45;6.20;;;3.92;;
50932;SDS011;36921;49.006;9.292;2023-04-16T12:35:12;6.32;;;3.80;;
50932;SDS011;36921;49.006;9.292;2023-04-16T12:37:38;8.43;;;4.28;;
50932;SDS011;36921;49.006;9.292;2023-04-16T12:40:04;8.00;;;4.18;;
50932;SDS011;36921;49.006;9.292;2023-04-16T12:42:31;5.97;;;3.65;;
50932;SDS011;36921;49.006;9.292;2023-04-16T12:45:03;7.90;;;4.35;;
50932;SDS011;36921;49.006;9.292;2023-04-16T12:47:32;7.55;;;4.80;;
50932;SDS011;36921;49.006;9.292;2023-04-16T12:49:58;6.50;;;3.58;;
50932;SDS011;36921;49.006;9.292;2023-04-16T12:52:24;6.82;;;4.00;;
50932;SDS011;36921;49.006;9.292;2023-04-16T12:54:49;9.57;;;4.63;;
50932;SDS011;36921;49.006;9.292;2023-04-16T12:57:15;6.90;;;4.00;;
50932;SDS011;36921;49.006;9.292;2023-04-16T12:59:40;5.70;;;3.65;;
50932;SDS011;36921;49.006;9.292;2023-04-16T13:02:06;7.05;;;3.83;;
50932;SDS011;36921;49.006;9.292;2023-04-16T13:04:31;7.47;;;4.13;;
50932;SDS011;36921;49.006;9.292;2023-04-16T13:06:56;5.93;;;3.70;;
50932;SDS011;36921;49.006;9.292;2023-04-16T13:09:22;8.35;;;4.32;;
50932;SDS011;36921;49.006;9.292;2023-04-16T13:11:47;8.38;;;4.20;;
50932;SDS011;36921;49.006;9.292;2023-04-16T13:14:12;6.40;;;3.95;;
50932;SDS011;36921;49.006;9.292;2023-04-16T13:16:38;6.38;;;3.55;;
50932;SDS011;36921;49.006;9.292;2023-04-16T13:19:03;9.25;;;4.00;;
50932;SDS011;36921;49.006;9.292;2023-04-16T13:21:29;7.20;;;4.13;;
50932;SDS011;36921;49.006;9.292;2023-04-16T13:23:54;7.20;;;3.95;;
50932;SDS011;36921;49.006;9.292;2023-04-16T13:26:19;8.00;;;4.15;;
50932;SDS011;36921;49.006;9.292;2023-04-16T13:28:46;7.45;;;4.40;;
50932;SDS011;36921;49.006;9.292;2023-04-16T13:31:11;7.03;;;4.22;;
50932;SDS011;36921;49.006;9.292;2023-04-16T13:33:37;8.10;;;4.40;;
50932;SDS011;36921;49.006;9.292;2023-04-16T13:36:03;6.65;;;4.22;;
50932;SDS011;36921;49.006;9.292;2023-04-16T13:38:28;10.55;;;4.72;;
50932;SDS011;36921;49.006;9.292;2023-04-16T13:40:54;7.57;;;5.15;;
50932;SDS011;36921;49.006;9.292;2023-04-16T13:43:19;7.20;;;4.68;;
50932;SDS011;36921;49.006;9.292;2023-04-16T13:45:47;7.20;;;4.82;;
50932;SDS011;36921;49.006;9.292;2023-04-16T13:48:12;8.95;;;5.20;;
50932;SDS011;36921;49.006;9.292;2023-04-16T13:50:38;8.93;;;5.20;;
50932;SDS011;36921;49.006;9.292;2023-04-16T13:53:03;8.18;;;4.57;;
50932;SDS011;36921;49.006;9.292;2023-04-16T13:55:30;9.30;;;5.40;;
50932;SDS011;36921;49.006;9.292;2023-04-16T13:57:56;8.13;;;5.25;;
50932;SDS011;36921;49.006;9.292;2023-04-16T14:00:21;8.20;;;5.43;;
50932;SDS011;36921;49.006;9.292;2023-04-16T14:02:47;8.23;;;5.80;;
50932;SDS011;36921;49.006;9.292;2023-04-16T14:05:15;10.18;;;5.85;;
50932;SDS011;36921;49.006;9.292;2023-04-16T14:07:40;8.30;;;5.28;;
50932;SDS011;36921;49.006;9.292;2023-04-16T14:10:06;8.38;;;5.43;;
50932;SDS011;36921;49.006;9.292;2023-04-16T14:12:32;11.70;;;5.80;;
50932;SDS011;36921;49.006;9.292;2023-04-16T14:14:57;8.45;;;5.80;;
50932;SDS011;36921;49.006;9.292;2023-04-16T14:17:23;8.52;;;5.40;;
50932;SDS011;36921;49.006;9.292;2023-04-16T14:19:48;9.40;;;5.63;;
50932;SDS011;36921;49.006;9.292;2023-04-16T14:22:13;13.50;;;5.55;;
50932;SDS011;36921;49.006;9.292;2023-04-16T14:24:42;10.93;;;6.82;;
50932;SDS011;36921;49.006;9.292;2023-04-16T14:27:08;10.25;;;6.25;;
50932;SDS011;36921;49.006;9.292;2023-04-16T14:29:33;11.23;;;6.32;;
50932;SDS011;36921;49.006;9.292;2023-04-16T14:32:00;11.82;;;6.15;;
50932;SDS011;36921;49.006;9.292;2023-04-16T14:34:25;10.05;;;6.03;;
50932;SDS011;36921;49.006;9.292;2023-04-16T14:36:51;10.27;;;6.07;;
50932;SDS011;36921;49.006;9.292;2023-04-16T14:39:16;10.02;;;5.57;;
50932;SDS011;36921;49.006;9.292;2023-04-16T14:41:42;11.77;;;6.68;;
50932;SDS011;36921;49.006;9.292;2023-04-16T14:44:07;10.90;;;6.72;;
50932;SDS011;36921;49.006;9.292;2023-04-16T14:46:33;11.43;;;6.70;;